sensor_id;sensor_type;location;lat;lon;timestamp;temperature;humidity
28608;DHT22;15802;45.654;13.804;2022-08-01T00:00:27;24.50;99.90
28608;DHT22;15802;45.654;13.804;2022-08-01T00:02:53;24.50;99.90
28608;DHT22;15802;45.654;13.804;2022-08-01T00:05:19;24.40;99.90
28608;DHT22;15802;45.654;13.804;2022-08-01T00:07:45;24.30;99.90
28608;DHT22;15802;45.654;13.804;2022-08-01T00:10:13;24.30;99.90
28608;DHT22;15802;45.654;13.804;2022-08-01T00:12:39;24.30;99.90
28608;DHT22;15802;45.654;13.804;2022-08-01T00:15:07;24.40;99.90
28608;DHT22;15802;45.654;13.804;2022-08-01T00:17:33;24.40;99.90
28608;DHT22;15802;45.654;13.804;2022-08-01T00:19:59;24.30;99.90
28608;DHT22;15802;45.654;13.804;2022-08-01T00:22:25;24.30;99.90
28608;DHT22;15802;45.654;13.804;2022-08-01T00:24:51;24.30;99.90
28608;DHT22;15802;45.654;13.804;2022-08-01T00:27:16;24.30;99.90
28608;DHT22;15802;45.654;13.804;2022-08-01T00:29:42;24.30;99.90
28608;DHT22;15802;45.654;13.804;2022-08-01T00:32:08;24.30;99.90
28608;DHT22;15802;45.654;13.804;2022-08-01T00:34:33;24.40;99.90
28608;DHT22;15802;45.654;13.804;2022-08-01T00:36:59;24.40;99.90
28608;DHT22;15802;45.654;13.804;2022-08-01T00:39:25;24.30;99.90
28608;DHT22;15802;45.654;13.804;2022-08-01T00:41:51;24.30;99.90
28608;DHT22;15802;45.654;13.804;2022-08-01T00:44:17;24.20;99.90
28608;DHT22;15802;45.654;13.804;2022-08-01T00:46:42;24.20;99.90
28608;DHT22;15802;45.654;13.804;2022-08-01T00:49:08;24.20;99.90
28608;DHT22;15802;45.654;13.804;2022-08-01T00:51:34;24.30;99.90
28608;DHT22;15802;45.654;13.804;2022-08-01T00:54:00;24.20;99.90
28608;DHT22;15802;45.654;13.804;2022-08-01T00:56:27;24.20;99.90
28608;DHT22;15802;45.654;13.804;2022-08-01T00:58:54;24.20;99.90
28608;DHT22;15802;45.654;13.804;2022-08-01T01:01:21;24.20;99.90
28608;DHT22;15802;45.654;13.804;2022-08-01T01:03:50;24.20;99.90
28608;DHT22;15802;45.654;13.804;2022-08-01T01:06:51;24.20;99.90
28608;DHT22;15802;45.654;13.804;2022-08-01T01:09:39;24.20;99.90
28608;DHT22;15802;45.654;13.804;2022-08-01T01:12:22;24.20;99.90
28608;DHT22;15802;45.654;13.804;2022-08-01T01:15:06;24.30;99.90
28608;DHT22;15802;45.654;13.804;2022-08-01T01:17:39;24.20;99.90
28608;DHT22;15802;45.654;13.804;2022-08-01T01:20:08;24.30;99.90
28608;DHT22;15802;45.654;13.804;2022-08-01T01:22:50;24.30;99.90
28608;DHT22;15802;45.654;13.804;2022-08-01T01:25:41;24.30;99.90
28608;DHT22;15802;45.654;13.804;2022-08-01T01:28:33;24.30;99.90
28608;DHT22;15802;45.654;13.804;2022-08-01T01:31:00;24.30;99.90
28608;DHT22;15802;45.654;13.804;2022-08-01T01:33:27;24.30;99.90
28608;DHT22;15802;45.654;13.804;2022-08-01T01:36:00;24.30;99.90
28608;DHT22;15802;45.654;13.804;2022-08-01T01:38:31;24.20;99.90
28608;DHT22;15802;45.654;13.804;2022-08-01T01:40:58;24.20;99.90
28608;DHT22;15802;45.654;13.804;2022-08-01T01:43:25;24.20;99.90
28608;DHT22;15802;45.654;13.804;2022-08-01T01:45:52;24.20;99.90
28608;DHT22;15802;45.654;13.804;2022-08-01T01:48:20;24.10;99.90
28608;DHT22;15802;45.654;13.804;2022-08-01T01:50:47;24.10;99.90
28608;DHT22;15802;45.654;13.804;2022-08-01T01:53:17;24.10;99.90
28608;DHT22;15802;45.654;13.804;2022-08-01T01:55:45;24.10;99.90
28608;DHT22;15802;45.654;13.804;2022-08-01T01:58:13;24.10;99.90
28608;DHT22;15802;45.654;13.804;2022-08-01T02:00:40;24.10;99.90
28608;DHT22;15802;45.654;13.804;2022-08-01T02:03:10;24.10;99.90
28608;DHT22;15802;45.654;13.804;2022-08-01T02:05:38;24.10;99.90
28608;DHT22;15802;45.654;13.804;2022-08-01T02:08:05;24.10;99.90
28608;DHT22;15802;45.654;13.804;2022-08-01T02:10:32;24.00;99.90
28608;DHT22;15802;45.654;13.804;2022-08-01T02:13:02;24.00;99.90
28608;DHT22;15802;45.654;13.804;2022-08-01T02:15:30;23.90;99.90
28608;DHT22;15802;45.654;13.804;2022-08-01T02:17:57;23.90;99.90
28608;DHT22;15802;45.654;13.804;2022-08-01T02:20:24;24.00;99.90
28608;DHT22;15802;45.654;13.804;2022-08-01T02:22:55;24.00;99.90
28608;DHT22;15802;45.654;13.804;2022-08-01T02:25:26;24.00;99.90
28608;DHT22;15802;45.654;13.804;2022-08-01T02:28:11;24.00;99.90
28608;DHT22;15802;45.654;13.804;2022-08-01T02:30:42;23.90;99.90
28608;DHT22;15802;45.654;13.804;2022-08-01T02:33:22;24.00;99.90
28608;DHT22;15802;45.654;13.804;2022-08-01T02:35:51;23.90;99.90
28608;DHT22;15802;45.654;13.804;2022-08-01T02:38:21;23.90;99.90
28608;DHT22;15802;45.654;13.804;2022-08-01T02:40:50;23.90;99.90
28608;DHT22;15802;45.654;13.804;2022-08-01T02:43:21;23.80;99.90
28608;DHT22;15802;45.654;13.804;2022-08-01T02:45:53;23.80;99.90
28608;DHT22;15802;45.654;13.804;2022-08-01T02:48:21;23.80;99.90
28608;DHT22;15802;45.654;13.804;2022-08-01T02:50:49;23.90;99.90
28608;DHT22;15802;45.654;13.804;2022-08-01T02:53:19;23.80;99.90
28608;DHT22;15802;45.654;13.804;2022-08-01T02:55:46;23.80;99.90
28608;DHT22;15802;45.654;13.804;2022-08-01T02:58:15;23.80;99.90
28608;DHT22;15802;45.654;13.804;2022-08-01T03:00:43;23.70;99.90
28608;DHT22;15802;45.654;13.804;2022-08-01T03:03:10;23.70;99.90
28608;DHT22;15802;45.654;13.804;2022-08-01T03:05:37;23.70;99.90
28608;DHT22;15802;45.654;13.804;2022-08-01T03:08:06;23.70;99.90
28608;DHT22;15802;45.654;13.804;2022-08-01T03:10:35;23.70;99.90
28608;DHT22;15802;45.654;13.804;2022-08-01T03:13:03;23.70;99.90
28608;DHT22;15802;45.654;13.804;2022-08-01T03:15:31;23.70;99.90
28608;DHT22;15802;45.654;13.804;2022-08-01T03:18:00;23.60;99.90
28608;DHT22;15802;45.654;13.804;2022-08-01T03:20:27;23.60;99.90
28608;DHT22;15802;45.654;13.804;2022-08-01T03:22:54;23.50;99.90
28608;DHT22;15802;45.654;13.804;2022-08-01T03:25:21;23.40;99.90
28608;DHT22;15802;45.654;13.804;2022-08-01T03:27:54;23.50;99.90
28608;DHT22;15802;45.654;13.804;2022-08-01T03:30:22;23.50;99.90
28608;DHT22;15802;45.654;13.804;2022-08-01T03:32:48;23.60;99.90
28608;DHT22;15802;45.654;13.804;2022-08-01T03:35:14;23.50;99.90
28608;DHT22;15802;45.654;13.804;2022-08-01T03:37:45;23.50;99.90
28608;DHT22;15802;45.654;13.804;2022-08-01T03:40:19;23.40;99.90
28608;DHT22;15802;45.654;13.804;2022-08-01T03:42:48;23.40;99.90
28608;DHT22;15802;45.654;13.804;2022-08-01T03:45:22;23.40;99.90
28608;DHT22;15802;45.654;13.804;2022-08-01T03:47:51;23.30;99.90
28608;DHT22;15802;45.654;13.804;2022-08-01T03:50:21;23.40;99.90
28608;DHT22;15802;45.654;13.804;2022-08-01T03:52:49;23.30;99.90
28608;DHT22;15802;45.654;13.804;2022-08-01T03:55:16;23.30;99.90
28608;DHT22;15802;45.654;13.804;2022-08-01T03:57:44;23.30;99.90
28608;DHT22;15802;45.654;13.804;2022-08-01T04:00:11;23.30;99.90
28608;DHT22;15802;45.654;13.804;2022-08-01T04:02:38;23.30;99.90
28608;DHT22;15802;45.654;13.804;2022-08-01T04:05:04;23.20;99.90
28608;DHT22;15802;45.654;13.804;2022-08-01T04:07:32;23.20;99.90
28608;DHT22;15802;45.654;13.804;2022-08-01T04:09:58;23.20;99.90
28608;DHT22;15802;45.654;13.804;2022-08-01T04:12:24;23.30;99.90
28608;DHT22;15802;45.654;13.804;2022-08-01T04:14:50;23.30;99.90
28608;DHT22;15802;45.654;13.804;2022-08-01T04:17:16;23.20;99.90
28608;DHT22;15802;45.654;13.804;2022-08-01T04:19:43;23.20;99.90
28608;DHT22;15802;45.654;13.804;2022-08-01T04:22:10;23.20;99.90
28608;DHT22;15802;45.654;13.804;2022-08-01T04:24:37;23.20;99.90
28608;DHT22;15802;45.654;13.804;2022-08-01T04:27:09;23.20;99.90
28608;DHT22;15802;45.654;13.804;2022-08-01T04:29:36;23.20;99.90
28608;DHT22;15802;45.654;13.804;2022-08-01T04:32:05;23.10;99.90
28608;DHT22;15802;45.654;13.804;2022-08-01T04:34:33;23.10;99.90
28608;DHT22;15802;45.654;13.804;2022-08-01T04:37:00;23.10;99.90
28608;DHT22;15802;45.654;13.804;2022-08-01T04:39:28;23.10;99.90
28608;DHT22;15802;45.654;13.804;2022-08-01T04:41:58;23.20;99.90
28608;DHT22;15802;45.654;13.804;2022-08-01T04:44:25;23.20;99.90
28608;DHT22;15802;45.654;13.804;2022-08-01T04:46:53;23.10;99.90
28608;DHT22;15802;45.654;13.804;2022-08-01T04:49:21;23.00;99.90
28608;DHT22;15802;45.654;13.804;2022-08-01T04:51:55;23.00;99.90
28608;DHT22;15802;45.654;13.804;2022-08-01T04:54:26;23.00;99.90
28608;DHT22;15802;45.654;13.804;2022-08-01T04:56:54;23.00;99.90
28608;DHT22;15802;45.654;13.804;2022-08-01T04:59:28;23.00;99.90
28608;DHT22;15802;45.654;13.804;2022-08-01T05:02:16;23.00;99.90
28608;DHT22;15802;45.654;13.804;2022-08-01T05:04:42;23.00;99.90
28608;DHT22;15802;45.654;13.804;2022-08-01T05:07:09;23.10;99.90
28608;DHT22;15802;45.654;13.804;2022-08-01T05:09:36;23.00;99.90
28608;DHT22;15802;45.654;13.804;2022-08-01T05:12:03;23.00;99.90
28608;DHT22;15802;45.654;13.804;2022-08-01T05:14:30;23.10;99.90
28608;DHT22;15802;45.654;13.804;2022-08-01T05:16:58;23.00;99.90
28608;DHT22;15802;45.654;13.804;2022-08-01T05:19:25;23.00;99.90
28608;DHT22;15802;45.654;13.804;2022-08-01T05:21:52;22.90;99.90
28608;DHT22;15802;45.654;13.804;2022-08-01T05:24:18;22.90;99.90
28608;DHT22;15802;45.654;13.804;2022-08-01T05:26:43;22.90;99.90
28608;DHT22;15802;45.654;13.804;2022-08-01T05:29:09;23.00;99.90
28608;DHT22;15802;45.654;13.804;2022-08-01T05:31:35;23.10;99.90
28608;DHT22;15802;45.654;13.804;2022-08-01T05:34:02;23.20;99.90
28608;DHT22;15802;45.654;13.804;2022-08-01T05:36:28;23.20;99.90
28608;DHT22;15802;45.654;13.804;2022-08-01T05:38:54;23.20;99.90
28608;DHT22;15802;45.654;13.804;2022-08-01T05:41:19;23.30;99.90
28608;DHT22;15802;45.654;13.804;2022-08-01T05:43:45;23.30;99.90
28608;DHT22;15802;45.654;13.804;2022-08-01T05:46:11;23.40;99.90
28608;DHT22;15802;45.654;13.804;2022-08-01T05:48:37;23.40;99.90
28608;DHT22;15802;45.654;13.804;2022-08-01T05:51:03;23.50;99.90
28608;DHT22;15802;45.654;13.804;2022-08-01T05:53:29;23.50;99.90
28608;DHT22;15802;45.654;13.804;2022-08-01T05:55:55;23.60;99.90
28608;DHT22;15802;45.654;13.804;2022-08-01T05:58:21;23.70;99.90
28608;DHT22;15802;45.654;13.804;2022-08-01T06:00:47;23.80;99.90
28608;DHT22;15802;45.654;13.804;2022-08-01T06:03:13;23.90;99.90
28608;DHT22;15802;45.654;13.804;2022-08-01T06:05:40;24.00;99.90
28608;DHT22;15802;45.654;13.804;2022-08-01T06:08:06;24.10;99.90
28608;DHT22;15802;45.654;13.804;2022-08-01T06:10:31;24.20;99.90
28608;DHT22;15802;45.654;13.804;2022-08-01T06:12:57;24.30;99.90
28608;DHT22;15802;45.654;13.804;2022-08-01T06:15:23;24.40;99.90
28608;DHT22;15802;45.654;13.804;2022-08-01T06:17:49;24.50;99.90
28608;DHT22;15802;45.654;13.804;2022-08-01T06:20:14;24.60;99.90
28608;DHT22;15802;45.654;13.804;2022-08-01T06:22:40;24.60;99.90
28608;DHT22;15802;45.654;13.804;2022-08-01T06:25:07;24.80;99.90
28608;DHT22;15802;45.654;13.804;2022-08-01T06:27:34;25.00;99.90
28608;DHT22;15802;45.654;13.804;2022-08-01T06:30:00;25.10;99.90
28608;DHT22;15802;45.654;13.804;2022-08-01T06:32:26;25.20;99.90
28608;DHT22;15802;45.654;13.804;2022-08-01T06:34:53;25.30;99.90
28608;DHT22;15802;45.654;13.804;2022-08-01T06:37:19;25.40;99.90
28608;DHT22;15802;45.654;13.804;2022-08-01T06:39:45;25.50;99.90
28608;DHT22;15802;45.654;13.804;2022-08-01T06:42:10;25.60;99.90
28608;DHT22;15802;45.654;13.804;2022-08-01T06:44:36;25.70;99.90
28608;DHT22;15802;45.654;13.804;2022-08-01T06:47:02;26.00;99.90
28608;DHT22;15802;45.654;13.804;2022-08-01T06:49:28;26.10;99.90
28608;DHT22;15802;45.654;13.804;2022-08-01T06:51:53;26.20;99.90
28608;DHT22;15802;45.654;13.804;2022-08-01T06:54:19;26.30;99.90
28608;DHT22;15802;45.654;13.804;2022-08-01T06:56:46;26.40;99.90
28608;DHT22;15802;45.654;13.804;2022-08-01T06:59:12;26.50;99.90
28608;DHT22;15802;45.654;13.804;2022-08-01T07:01:37;26.60;99.90
28608;DHT22;15802;45.654;13.804;2022-08-01T07:04:03;26.70;99.90
28608;DHT22;15802;45.654;13.804;2022-08-01T07:06:29;26.80;99.90
28608;DHT22;15802;45.654;13.804;2022-08-01T07:08:55;26.90;99.90
28608;DHT22;15802;45.654;13.804;2022-08-01T07:11:23;27.00;99.90
28608;DHT22;15802;45.654;13.804;2022-08-01T07:13:49;27.10;99.90
28608;DHT22;15802;45.654;13.804;2022-08-01T07:16:15;27.10;99.90
28608;DHT22;15802;45.654;13.804;2022-08-01T07:18:42;27.20;99.90
28608;DHT22;15802;45.654;13.804;2022-08-01T07:21:08;27.20;99.90
28608;DHT22;15802;45.654;13.804;2022-08-01T07:23:34;27.30;99.90
28608;DHT22;15802;45.654;13.804;2022-08-01T07:26:00;27.40;99.90
28608;DHT22;15802;45.654;13.804;2022-08-01T07:28:28;27.50;99.90
28608;DHT22;15802;45.654;13.804;2022-08-01T07:30:54;27.60;99.90
28608;DHT22;15802;45.654;13.804;2022-08-01T07:33:19;27.70;99.90
28608;DHT22;15802;45.654;13.804;2022-08-01T07:35:45;27.70;99.90
28608;DHT22;15802;45.654;13.804;2022-08-01T07:38:11;27.70;99.90
28608;DHT22;15802;45.654;13.804;2022-08-01T07:40:37;27.70;99.90
28608;DHT22;15802;45.654;13.804;2022-08-01T07:43:02;27.80;99.90
28608;DHT22;15802;45.654;13.804;2022-08-01T07:45:28;27.90;99.90
28608;DHT22;15802;45.654;13.804;2022-08-01T07:47:55;27.90;99.90
28608;DHT22;15802;45.654;13.804;2022-08-01T07:50:20;28.00;99.90
28608;DHT22;15802;45.654;13.804;2022-08-01T07:52:46;28.10;99.90
28608;DHT22;15802;45.654;13.804;2022-08-01T07:55:12;28.10;99.90
28608;DHT22;15802;45.654;13.804;2022-08-01T07:57:38;28.10;99.90
28608;DHT22;15802;45.654;13.804;2022-08-01T08:00:05;28.10;99.90
28608;DHT22;15802;45.654;13.804;2022-08-01T08:02:32;28.20;99.90
28608;DHT22;15802;45.654;13.804;2022-08-01T08:04:58;28.20;99.90
28608;DHT22;15802;45.654;13.804;2022-08-01T08:07:23;28.20;99.90
28608;DHT22;15802;45.654;13.804;2022-08-01T08:09:49;28.30;99.90
28608;DHT22;15802;45.654;13.804;2022-08-01T08:12:15;28.50;99.90
28608;DHT22;15802;45.654;13.804;2022-08-01T08:14:41;28.50;99.90
28608;DHT22;15802;45.654;13.804;2022-08-01T08:17:06;28.50;99.90
28608;DHT22;15802;45.654;13.804;2022-08-01T08:19:32;28.50;99.90
28608;DHT22;15802;45.654;13.804;2022-08-01T08:22:00;28.60;99.90
28608;DHT22;15802;45.654;13.804;2022-08-01T08:24:26;28.70;99.90
28608;DHT22;15802;45.654;13.804;2022-08-01T08:26:56;28.70;99.90
28608;DHT22;15802;45.654;13.804;2022-08-01T08:29:24;28.70;99.90
28608;DHT22;15802;45.654;13.804;2022-08-01T08:31:52;28.70;99.90
28608;DHT22;15802;45.654;13.804;2022-08-01T08:34:19;28.80;99.90
28608;DHT22;15802;45.654;13.804;2022-08-01T08:36:45;28.80;99.90
28608;DHT22;15802;45.654;13.804;2022-08-01T08:39:11;28.80;99.90
28608;DHT22;15802;45.654;13.804;2022-08-01T08:41:37;28.80;99.90
28608;DHT22;15802;45.654;13.804;2022-08-01T08:44:05;28.80;99.90
28608;DHT22;15802;45.654;13.804;2022-08-01T08:46:32;28.90;99.90
28608;DHT22;15802;45.654;13.804;2022-08-01T08:48:59;28.90;99.90
28608;DHT22;15802;45.654;13.804;2022-08-01T08:51:26;29.00;99.90
28608;DHT22;15802;45.654;13.804;2022-08-01T08:53:55;29.00;99.90
28608;DHT22;15802;45.654;13.804;2022-08-01T08:56:23;29.00;99.90
28608;DHT22;15802;45.654;13.804;2022-08-01T08:58:51;29.00;99.90
28608;DHT22;15802;45.654;13.804;2022-08-01T09:01:16;29.00;99.90
28608;DHT22;15802;45.654;13.804;2022-08-01T09:03:43;29.10;99.90
28608;DHT22;15802;45.654;13.804;2022-08-01T09:06:09;29.10;99.90
28608;DHT22;15802;45.654;13.804;2022-08-01T09:08:36;29.10;99.90
28608;DHT22;15802;45.654;13.804;2022-08-01T09:11:02;29.00;99.90
28608;DHT22;15802;45.654;13.804;2022-08-01T09:13:28;29.00;99.90
28608;DHT22;15802;45.654;13.804;2022-08-01T09:15:56;29.10;99.90
28608;DHT22;15802;45.654;13.804;2022-08-01T09:18:40;29.20;99.90
28608;DHT22;15802;45.654;13.804;2022-08-01T09:21:12;29.20;99.90
28608;DHT22;15802;45.654;13.804;2022-08-01T09:23:43;29.30;99.90
28608;DHT22;15802;45.654;13.804;2022-08-01T09:26:12;29.30;99.90
28608;DHT22;15802;45.654;13.804;2022-08-01T09:28:39;29.20;99.90
28608;DHT22;15802;45.654;13.804;2022-08-01T09:31:09;29.40;99.90
28608;DHT22;15802;45.654;13.804;2022-08-01T09:33:57;29.40;99.90
28608;DHT22;15802;45.654;13.804;2022-08-01T09:36:25;29.50;99.90
28608;DHT22;15802;45.654;13.804;2022-08-01T09:38:53;29.60;99.90
28608;DHT22;15802;45.654;13.804;2022-08-01T09:41:35;29.70;99.90
28608;DHT22;15802;45.654;13.804;2022-08-01T09:44:00;29.70;99.90
28608;DHT22;15802;45.654;13.804;2022-08-01T09:46:26;29.80;99.90
28608;DHT22;15802;45.654;13.804;2022-08-01T09:48:57;29.80;99.90
28608;DHT22;15802;45.654;13.804;2022-08-01T09:51:33;29.90;99.90
28608;DHT22;15802;45.654;13.804;2022-08-01T09:54:01;30.00;99.90
28608;DHT22;15802;45.654;13.804;2022-08-01T09:56:36;30.00;99.90
28608;DHT22;15802;45.654;13.804;2022-08-01T09:59:03;30.10;99.90
28608;DHT22;15802;45.654;13.804;2022-08-01T10:01:43;30.10;99.90
28608;DHT22;15802;45.654;13.804;2022-08-01T10:04:13;30.20;99.90
28608;DHT22;15802;45.654;13.804;2022-08-01T10:06:41;30.20;99.90
28608;DHT22;15802;45.654;13.804;2022-08-01T10:09:10;30.20;99.90
28608;DHT22;15802;45.654;13.804;2022-08-01T10:11:37;30.20;99.90
28608;DHT22;15802;45.654;13.804;2022-08-01T10:14:05;30.30;99.90
28608;DHT22;15802;45.654;13.804;2022-08-01T10:16:33;30.30;99.90
28608;DHT22;15802;45.654;13.804;2022-08-01T10:19:00;30.40;99.90
28608;DHT22;15802;45.654;13.804;2022-08-01T10:21:27;30.40;99.90
28608;DHT22;15802;45.654;13.804;2022-08-01T10:23:54;30.30;99.90
28608;DHT22;15802;45.654;13.804;2022-08-01T10:26:24;30.40;99.90
28608;DHT22;15802;45.654;13.804;2022-08-01T10:28:51;30.60;99.90
28608;DHT22;15802;45.654;13.804;2022-08-01T10:31:18;30.70;99.90
28608;DHT22;15802;45.654;13.804;2022-08-01T10:33:44;30.80;99.90
28608;DHT22;15802;45.654;13.804;2022-08-01T10:36:10;30.80;99.90
28608;DHT22;15802;45.654;13.804;2022-08-01T10:38:37;30.80;99.90
28608;DHT22;15802;45.654;13.804;2022-08-01T10:41:04;30.90;99.90
28608;DHT22;15802;45.654;13.804;2022-08-01T10:43:30;31.00;99.90
28608;DHT22;15802;45.654;13.804;2022-08-01T10:45:56;30.90;99.90
28608;DHT22;15802;45.654;13.804;2022-08-01T10:48:35;31.00;99.90
28608;DHT22;15802;45.654;13.804;2022-08-01T10:51:05;31.00;99.90
28608;DHT22;15802;45.654;13.804;2022-08-01T10:53:31;31.10;99.90
28608;DHT22;15802;45.654;13.804;2022-08-01T10:56:01;31.20;99.90
28608;DHT22;15802;45.654;13.804;2022-08-01T10:58:33;31.40;99.90
28608;DHT22;15802;45.654;13.804;2022-08-01T11:01:24;31.40;99.90
28608;DHT22;15802;45.654;13.804;2022-08-01T11:04:03;31.30;99.90
28608;DHT22;15802;45.654;13.804;2022-08-01T11:07:02;31.30;99.90
28608;DHT22;15802;45.654;13.804;2022-08-01T11:09:47;31.20;99.90
28608;DHT22;15802;45.654;13.804;2022-08-01T11:12:15;31.10;99.90
28608;DHT22;15802;45.654;13.804;2022-08-01T11:15:18;31.00;99.90
28608;DHT22;15802;45.654;13.804;2022-08-01T11:17:51;31.00;99.90
28608;DHT22;15802;45.654;13.804;2022-08-01T11:20:24;31.00;99.90
28608;DHT22;15802;45.654;13.804;2022-08-01T11:23:24;31.00;99.90
28608;DHT22;15802;45.654;13.804;2022-08-01T11:26:09;31.20;99.90
28608;DHT22;15802;45.654;13.804;2022-08-01T11:28:35;31.20;99.90
28608;DHT22;15802;45.654;13.804;2022-08-01T11:31:24;31.20;99.90
28608;DHT22;15802;45.654;13.804;2022-08-01T11:33:50;31.10;99.90
28608;DHT22;15802;45.654;13.804;2022-08-01T11:36:17;31.10;99.90
28608;DHT22;15802;45.654;13.804;2022-08-01T11:38:45;31.10;99.90
28608;DHT22;15802;45.654;13.804;2022-08-01T11:41:16;31.10;99.90
28608;DHT22;15802;45.654;13.804;2022-08-01T11:44:03;31.20;99.90
28608;DHT22;15802;45.654;13.804;2022-08-01T11:46:54;31.20;99.90
28608;DHT22;15802;45.654;13.804;2022-08-01T11:51:15;31.20;99.90
28608;DHT22;15802;45.654;13.804;2022-08-01T11:53:49;31.20;99.90
28608;DHT22;15802;45.654;13.804;2022-08-01T11:56:16;31.10;99.90
28608;DHT22;15802;45.654;13.804;2022-08-01T11:58:42;31.20;99.90
28608;DHT22;15802;45.654;13.804;2022-08-01T12:01:12;31.30;99.90
28608;DHT22;15802;45.654;13.804;2022-08-01T12:03:38;31.30;99.90
28608;DHT22;15802;45.654;13.804;2022-08-01T12:06:04;31.30;99.90
28608;DHT22;15802;45.654;13.804;2022-08-01T12:08:31;31.30;99.90
28608;DHT22;15802;45.654;13.804;2022-08-01T12:11:00;31.40;99.90
28608;DHT22;15802;45.654;13.804;2022-08-01T12:13:27;31.50;99.90
28608;DHT22;15802;45.654;13.804;2022-08-01T12:15:54;31.60;99.90
28608;DHT22;15802;45.654;13.804;2022-08-01T12:18:19;31.60;99.90
28608;DHT22;15802;45.654;13.804;2022-08-01T12:20:46;31.60;99.90
28608;DHT22;15802;45.654;13.804;2022-08-01T12:23:14;31.60;99.90
28608;DHT22;15802;45.654;13.804;2022-08-01T12:25:40;31.40;99.90
28608;DHT22;15802;45.654;13.804;2022-08-01T12:28:10;31.40;99.90
28608;DHT22;15802;45.654;13.804;2022-08-01T12:30:38;31.40;99.90
28608;DHT22;15802;45.654;13.804;2022-08-01T12:33:07;31.40;99.90
28608;DHT22;15802;45.654;13.804;2022-08-01T12:35:33;31.30;99.90
28608;DHT22;15802;45.654;13.804;2022-08-01T12:38:02;31.40;99.90
28608;DHT22;15802;45.654;13.804;2022-08-01T12:40:31;31.50;99.90
28608;DHT22;15802;45.654;13.804;2022-08-01T12:43:00;31.50;99.90
28608;DHT22;15802;45.654;13.804;2022-08-01T12:45:45;31.60;99.90
28608;DHT22;15802;45.654;13.804;2022-08-01T12:48:14;31.70;99.90
28608;DHT22;15802;45.654;13.804;2022-08-01T12:50:44;31.90;98.50
28608;DHT22;15802;45.654;13.804;2022-08-01T12:53:10;31.90;98.40
28608;DHT22;15802;45.654;13.804;2022-08-01T12:55:54;32.00;99.40
28608;DHT22;15802;45.654;13.804;2022-08-01T12:58:21;32.00;99.20
28608;DHT22;15802;45.654;13.804;2022-08-01T13:00:49;32.00;99.50
28608;DHT22;15802;45.654;13.804;2022-08-01T13:03:18;32.00;99.90
28608;DHT22;15802;45.654;13.804;2022-08-01T13:05:51;32.10;99.90
28608;DHT22;15802;45.654;13.804;2022-08-01T13:08:19;32.10;99.90
28608;DHT22;15802;45.654;13.804;2022-08-01T13:10:46;32.00;99.90
28608;DHT22;15802;45.654;13.804;2022-08-01T13:13:13;31.90;99.90
28608;DHT22;15802;45.654;13.804;2022-08-01T13:15:41;31.90;99.90
28608;DHT22;15802;45.654;13.804;2022-08-01T13:18:29;31.90;99.90
28608;DHT22;15802;45.654;13.804;2022-08-01T13:21:15;31.90;99.90
28608;DHT22;15802;45.654;13.804;2022-08-01T13:26:50;31.20;99.90
28608;DHT22;15802;45.654;13.804;2022-08-01T13:29:19;31.10;99.90
28608;DHT22;15802;45.654;13.804;2022-08-01T13:31:46;31.20;99.90
28608;DHT22;15802;45.654;13.804;2022-08-01T13:34:12;31.20;99.90
28608;DHT22;15802;45.654;13.804;2022-08-01T13:36:39;31.30;99.90
28608;DHT22;15802;45.654;13.804;2022-08-01T13:39:05;31.20;99.90
28608;DHT22;15802;45.654;13.804;2022-08-01T13:41:50;31.20;99.90
28608;DHT22;15802;45.654;13.804;2022-08-01T13:44:16;31.20;99.90
28608;DHT22;15802;45.654;13.804;2022-08-01T13:46:43;31.30;99.90
28608;DHT22;15802;45.654;13.804;2022-08-01T13:49:10;31.20;99.30
28608;DHT22;15802;45.654;13.804;2022-08-01T13:51:37;31.20;99.90
28608;DHT22;15802;45.654;13.804;2022-08-01T13:54:04;31.00;99.90
28608;DHT22;15802;45.654;13.804;2022-08-01T13:56:31;31.00;99.90
28608;DHT22;15802;45.654;13.804;2022-08-01T13:58:57;30.90;99.90
28608;DHT22;15802;45.654;13.804;2022-08-01T14:01:24;31.00;99.30
28608;DHT22;15802;45.654;13.804;2022-08-01T14:03:50;31.00;99.30
28608;DHT22;15802;45.654;13.804;2022-08-01T14:06:17;31.00;99.90
28608;DHT22;15802;45.654;13.804;2022-08-01T14:08:44;31.00;97.90
28608;DHT22;15802;45.654;13.804;2022-08-01T14:11:10;31.00;97.90
28608;DHT22;15802;45.654;13.804;2022-08-01T14:13:36;31.10;98.30
28608;DHT22;15802;45.654;13.804;2022-08-01T14:16:05;31.20;97.40
28608;DHT22;15802;45.654;13.804;2022-08-01T14:18:30;31.20;96.30
28608;DHT22;15802;45.654;13.804;2022-08-01T14:20:56;31.30;96.90
28608;DHT22;15802;45.654;13.804;2022-08-01T14:23:22;31.30;96.60
28608;DHT22;15802;45.654;13.804;2022-08-01T14:25:48;31.20;95.70
28608;DHT22;15802;45.654;13.804;2022-08-01T14:28:14;31.20;95.40
28608;DHT22;15802;45.654;13.804;2022-08-01T14:30:40;31.20;94.70
28608;DHT22;15802;45.654;13.804;2022-08-01T14:33:08;31.20;94.60
28608;DHT22;15802;45.654;13.804;2022-08-01T14:35:33;31.10;94.50
28608;DHT22;15802;45.654;13.804;2022-08-01T14:37:59;31.10;94.90
28608;DHT22;15802;45.654;13.804;2022-08-01T14:40:25;31.20;94.30
28608;DHT22;15802;45.654;13.804;2022-08-01T14:42:51;31.20;93.80
28608;DHT22;15802;45.654;13.804;2022-08-01T14:45:17;31.10;94.50
28608;DHT22;15802;45.654;13.804;2022-08-01T14:47:43;31.10;94.70
28608;DHT22;15802;45.654;13.804;2022-08-01T14:50:11;31.20;93.80
28608;DHT22;15802;45.654;13.804;2022-08-01T14:52:38;31.10;94.20
28608;DHT22;15802;45.654;13.804;2022-08-01T14:55:06;31.00;94.70
28608;DHT22;15802;45.654;13.804;2022-08-01T14:57:33;30.90;95.20
28608;DHT22;15802;45.654;13.804;2022-08-01T14:59:59;30.90;94.20
28608;DHT22;15802;45.654;13.804;2022-08-01T15:02:25;31.00;93.80
28608;DHT22;15802;45.654;13.804;2022-08-01T15:04:51;31.00;94.40
28608;DHT22;15802;45.654;13.804;2022-08-01T15:07:17;31.00;94.50
28608;DHT22;15802;45.654;13.804;2022-08-01T15:09:43;31.00;94.20
28608;DHT22;15802;45.654;13.804;2022-08-01T15:12:10;31.00;94.70
28608;DHT22;15802;45.654;13.804;2022-08-01T15:14:36;31.00;94.60
28608;DHT22;15802;45.654;13.804;2022-08-01T15:17:20;31.10;94.50
28608;DHT22;15802;45.654;13.804;2022-08-01T15:19:48;31.10;94.80
28608;DHT22;15802;45.654;13.804;2022-08-01T15:22:14;31.10;95.00
28608;DHT22;15802;45.654;13.804;2022-08-01T15:24:41;31.10;95.00
28608;DHT22;15802;45.654;13.804;2022-08-01T15:27:08;31.00;96.30
28608;DHT22;15802;45.654;13.804;2022-08-01T15:29:34;31.00;96.00